sensor_id;sensor_type;location;lat;lon;timestamp;P1;durP1;ratioP1;P2;durP2;ratioP2
13090;SDS011;6611;52.604;13.438;2023-04-01T00:01:13;4.40;;;2.43;;
13090;SDS011;6611;52.604;13.438;2023-04-01T00:06:17;4.10;;;2.07;;
13090;SDS011;6611;52.604;13.438;2023-04-01T00:11:21;3.47;;;1.83;;
13090;SDS011;6611;52.604;13.438;2023-04-01T00:16:23;5.47;;;2.10;;
13090;SDS011;6611;52.604;13.438;2023-04-01T00:21:25;2.90;;;2.00;;
13090;SDS011;6611;52.604;13.438;2023-04-01T00:26:28;3.33;;;1.87;;
13090;SDS011;6611;52.604;13.438;2023-04-01T00:31:30;3.93;;;1.90;;
13090;SDS011;6611;52.604;13.438;2023-04-01T00:36:32;4.00;;;1.90;;
13090;SDS011;6611;52.604;13.438;2023-04-01T00:41:35;4.07;;;2.00;;
13090;SDS011;6611;52.604;13.438;2023-04-01T00:46:36;6.17;;;2.20;;
13090;SDS011;6611;52.604;13.438;2023-04-01T00:51:38;4.50;;;2.47;;
13090;SDS011;6611;52.604;13.438;2023-04-01T00:56:45;3.90;;;2.37;;
13090;SDS011;6611;52.604;13.438;2023-04-01T01:01:51;3.23;;;2.60;;
13090;SDS011;6611;52.604;13.438;2023-04-01T01:06:55;2.20;;;2.00;;
13090;SDS011;6611;52.604;13.438;2023-04-01T01:12:08;4.27;;;2.57;;
13090;SDS011;6611;52.604;13.438;2023-04-01T01:17:16;3.47;;;2.30;;
13090;SDS011;6611;52.604;13.438;2023-04-01T01:22:36;4.37;;;3.00;;
13090;SDS011;6611;52.604;13.438;2023-04-01T01:27:54;5.50;;;2.97;;
13090;SDS011;6611;52.604;13.438;2023-04-01T01:33:12;2.73;;;2.07;;
13090;SDS011;6611;52.604;13.438;2023-04-01T01:38:24;2.93;;;2.10;;
13090;SDS011;6611;52.604;13.438;2023-04-01T01:43:29;2.67;;;2.07;;
13090;SDS011;6611;52.604;13.438;2023-04-01T01:48:33;3.33;;;2.30;;
13090;SDS011;6611;52.604;13.438;2023-04-01T01:53:37;3.00;;;2.20;;
13090;SDS011;6611;52.604;13.438;2023-04-01T01:58:39;3.97;;;2.20;;
13090;SDS011;6611;52.604;13.438;2023-04-01T02:03:44;3.40;;;2.20;;
13090;SDS011;6611;52.604;13.438;2023-04-01T02:08:49;3.00;;;2.23;;
13090;SDS011;6611;52.604;13.438;2023-04-01T02:13:55;4.93;;;2.10;;
13090;SDS011;6611;52.604;13.438;2023-04-01T02:19:01;3.73;;;2.53;;
13090;SDS011;6611;52.604;13.438;2023-04-01T02:24:10;4.90;;;2.50;;
13090;SDS011;6611;52.604;13.438;2023-04-01T02:29:15;3.83;;;2.33;;
13090;SDS011;6611;52.604;13.438;2023-04-01T02:34:19;4.27;;;2.67;;
13090;SDS011;6611;52.604;13.438;2023-04-01T02:39:22;3.23;;;2.30;;
13090;SDS011;6611;52.604;13.438;2023-04-01T02:44:25;2.93;;;2.10;;
13090;SDS011;6611;52.604;13.438;2023-04-01T02:49:27;3.93;;;2.13;;
13090;SDS011;6611;52.604;13.438;2023-04-01T02:54:30;4.77;;;2.23;;
13090;SDS011;6611;52.604;13.438;2023-04-01T02:59:31;3.47;;;2.30;;
13090;SDS011;6611;52.604;13.438;2023-04-01T03:04:33;2.90;;;2.10;;
13090;SDS011;6611;52.604;13.438;2023-04-01T03:09:37;4.43;;;2.27;;
13090;SDS011;6611;52.604;13.438;2023-04-01T03:14:40;3.90;;;2.43;;
13090;SDS011;6611;52.604;13.438;2023-04-01T03:19:41;5.93;;;2.60;;
13090;SDS011;6611;52.604;13.438;2023-04-01T03:24:44;2.87;;;2.20;;
13090;SDS011;6611;52.604;13.438;2023-04-01T03:29:46;2.90;;;2.07;;
13090;SDS011;6611;52.604;13.438;2023-04-01T03:34:48;2.90;;;2.37;;
13090;SDS011;6611;52.604;13.438;2023-04-01T03:39:51;3.67;;;3.00;;
13090;SDS011;6611;52.604;13.438;2023-04-01T03:44:53;3.47;;;2.53;;
13090;SDS011;6611;52.604;13.438;2023-04-01T03:49:54;2.50;;;2.30;;
13090;SDS011;6611;52.604;13.438;2023-04-01T03:54:57;3.53;;;2.53;;
13090;SDS011;6611;52.604;13.438;2023-04-01T03:59:59;4.10;;;2.50;;
13090;SDS011;6611;52.604;13.438;2023-04-01T04:05:01;6.90;;;2.80;;
13090;SDS011;6611;52.604;13.438;2023-04-01T04:10:04;3.97;;;2.43;;
13090;SDS011;6611;52.604;13.438;2023-04-01T04:15:07;4.30;;;2.90;;
13090;SDS011;6611;52.604;13.438;2023-04-01T04:20:09;3.60;;;2.70;;
13090;SDS011;6611;52.604;13.438;2023-04-01T04:25:12;5.03;;;2.73;;
13090;SDS011;6611;52.604;13.438;2023-04-01T04:30:14;3.80;;;2.60;;
13090;SDS011;6611;52.604;13.438;2023-04-01T04:35:16;5.00;;;3.07;;
13090;SDS011;6611;52.604;13.438;2023-04-01T04:40:19;3.70;;;2.33;;
13090;SDS011;6611;52.604;13.438;2023-04-01T04:45:21;7.07;;;3.07;;
13090;SDS011;6611;52.604;13.438;2023-04-01T04:50:22;3.03;;;2.50;;
13090;SDS011;6611;52.604;13.438;2023-04-01T04:55:26;4.17;;;2.83;;
13090;SDS011;6611;52.604;13.438;2023-04-01T05:00:28;3.33;;;2.77;;
13090;SDS011;6611;52.604;13.438;2023-04-01T05:05:30;4.77;;;2.90;;
13090;SDS011;6611;52.604;13.438;2023-04-01T05:10:33;4.13;;;2.80;;
13090;SDS011;6611;52.604;13.438;2023-04-01T05:15:34;4.60;;;3.10;;
13090;SDS011;6611;52.604;13.438;2023-04-01T05:20:37;6.17;;;3.40;;
13090;SDS011;6611;52.604;13.438;2023-04-01T05:25:40;4.83;;;2.87;;
13090;SDS011;6611;52.604;13.438;2023-04-01T05:30:42;3.87;;;3.13;;
13090;SDS011;6611;52.604;13.438;2023-04-01T05:35:44;4.50;;;3.17;;
13090;SDS011;6611;52.604;13.438;2023-04-01T05:40:47;7.90;;;3.63;;
13090;SDS011;6611;52.604;13.438;2023-04-01T05:45:49;4.37;;;3.27;;
13090;SDS011;6611;52.604;13.438;2023-04-01T05:50:50;6.37;;;4.00;;
13090;SDS011;6611;52.604;13.438;2023-04-01T05:55:53;6.00;;;3.60;;
13090;SDS011;6611;52.604;13.438;2023-04-01T06:00:59;9.23;;;4.57;;
13090;SDS011;6611;52.604;13.438;2023-04-01T06:06:02;7.30;;;4.90;;
13090;SDS011;6611;52.604;13.438;2023-04-01T06:11:10;10.37;;;5.83;;
13090;SDS011;6611;52.604;13.438;2023-04-01T06:16:22;7.50;;;5.40;;
13090;SDS011;6611;52.604;13.438;2023-04-01T06:21:38;6.67;;;5.17;;
13090;SDS011;6611;52.604;13.438;2023-04-01T06:26:53;10.20;;;6.33;;
13090;SDS011;6611;52.604;13.438;2023-04-01T06:32:12;10.00;;;5.90;;
13090;SDS011;6611;52.604;13.438;2023-04-01T06:37:33;6.40;;;4.90;;
13090;SDS011;6611;52.604;13.438;2023-04-01T06:42:53;10.17;;;6.53;;
13090;SDS011;6611;52.604;13.438;2023-04-01T06:48:11;10.87;;;6.13;;
13090;SDS011;6611;52.604;13.438;2023-04-01T06:53:25;10.13;;;7.50;;
13090;SDS011;6611;52.604;13.438;2023-04-01T06:58:37;8.33;;;5.27;;
13090;SDS011;6611;52.604;13.438;2023-04-01T07:03:43;8.43;;;5.70;;
13090;SDS011;6611;52.604;13.438;2023-04-01T07:08:48;6.47;;;4.77;;
13090;SDS011;6611;52.604;13.438;2023-04-01T07:13:54;6.93;;;5.03;;
13090;SDS011;6611;52.604;13.438;2023-04-01T07:19:00;5.43;;;3.93;;
13090;SDS011;6611;52.604;13.438;2023-04-01T07:24:09;7.77;;;4.43;;
13090;SDS011;6611;52.604;13.438;2023-04-01T07:29:17;5.90;;;3.37;;
13090;SDS011;6611;52.604;13.438;2023-04-01T07:34:20;7.73;;;3.00;;
13090;SDS011;6611;52.604;13.438;2023-04-01T07:39:28;5.17;;;3.10;;
13090;SDS011;6611;52.604;13.438;2023-04-01T07:44:41;5.60;;;3.13;;
13090;SDS011;6611;52.604;13.438;2023-04-01T07:49:53;5.53;;;3.50;;
13090;SDS011;6611;52.604;13.438;2023-04-01T07:55:06;5.73;;;3.70;;
13090;SDS011;6611;52.604;13.438;2023-04-01T08:00:16;6.00;;;3.87;;
13090;SDS011;6611;52.604;13.438;2023-04-01T08:05:22;8.90;;;3.70;;
13090;SDS011;6611;52.604;13.438;2023-04-01T08:10:28;6.43;;;3.80;;
13090;SDS011;6611;52.604;13.438;2023-04-01T08:15:40;8.60;;;4.40;;
13090;SDS011;6611;52.604;13.438;2023-04-01T08:20:50;9.73;;;5.23;;
13090;SDS011;6611;52.604;13.438;2023-04-01T08:25:58;9.47;;;5.80;;
13090;SDS011;6611;52.604;13.438;2023-04-01T08:31:05;7.63;;;5.03;;
13090;SDS011;6611;52.604;13.438;2023-04-01T08:36:12;9.90;;;5.90;;
13090;SDS011;6611;52.604;13.438;2023-04-01T08:41:22;10.70;;;6.63;;
13090;SDS011;6611;52.604;13.438;2023-04-01T08:52:24;10.27;;;6.60;;
13090;SDS011;6611;52.604;13.438;2023-04-01T08:57:38;8.97;;;6.43;;
13090;SDS011;6611;52.604;13.438;2023-04-01T09:03:10;10.77;;;6.73;;
13090;SDS011;6611;52.604;13.438;2023-04-01T09:08:35;9.40;;;6.80;;
13090;SDS011;6611;52.604;13.438;2023-04-01T09:14:07;12.53;;;6.87;;
13090;SDS011;6611;52.604;13.438;2023-04-01T09:19:28;9.97;;;6.33;;
13090;SDS011;6611;52.604;13.438;2023-04-01T09:30:36;12.10;;;7.73;;
13090;SDS011;6611;52.604;13.438;2023-04-01T09:36:03;13.07;;;7.10;;
13090;SDS011;6611;52.604;13.438;2023-04-01T09:41:11;9.53;;;6.20;;
13090;SDS011;6611;52.604;13.438;2023-04-01T09:46:26;9.67;;;6.33;;
13090;SDS011;6611;52.604;13.438;2023-04-01T09:51:39;9.60;;;6.37;;
13090;SDS011;6611;52.604;13.438;2023-04-01T09:57:00;8.23;;;6.17;;
13090;SDS011;6611;52.604;13.438;2023-04-01T10:08:06;9.50;;;5.80;;
13090;SDS011;6611;52.604;13.438;2023-04-01T10:19:31;10.60;;;7.40;;
13090;SDS011;6611;52.604;13.438;2023-04-01T10:25:01;10.93;;;7.47;;
13090;SDS011;6611;52.604;13.438;2023-04-01T10:30:31;11.40;;;7.43;;
13090;SDS011;6611;52.604;13.438;2023-04-01T10:35:55;7.83;;;5.93;;
13090;SDS011;6611;52.604;13.438;2023-04-01T10:41:43;9.73;;;6.43;;
13090;SDS011;6611;52.604;13.438;2023-04-01T10:52:58;9.77;;;6.20;;
13090;SDS011;6611;52.604;13.438;2023-04-01T10:58:51;8.87;;;6.03;;
13090;SDS011;6611;52.604;13.438;2023-04-01T11:04:44;9.67;;;6.77;;
13090;SDS011;6611;52.604;13.438;2023-04-01T11:10:21;9.77;;;6.13;;
13090;SDS011;6611;52.604;13.438;2023-04-01T11:15:49;7.67;;;5.80;;
13090;SDS011;6611;52.604;13.438;2023-04-01T11:21:21;7.63;;;5.90;;
13090;SDS011;6611;52.604;13.438;2023-04-01T11:26:50;9.37;;;6.60;;
13090;SDS011;6611;52.604;13.438;2023-04-01T11:32:01;9.07;;;5.80;;
13090;SDS011;6611;52.604;13.438;2023-04-01T11:37:10;7.93;;;6.13;;
13090;SDS011;6611;52.604;13.438;2023-04-01T11:42:26;8.80;;;6.70;;
13090;SDS011;6611;52.604;13.438;2023-04-01T11:47:47;7.80;;;5.97;;
13090;SDS011;6611;52.604;13.438;2023-04-01T11:53:05;8.53;;;6.50;;
13090;SDS011;6611;52.604;13.438;2023-04-01T11:58:25;7.17;;;5.47;;
13090;SDS011;6611;52.604;13.438;2023-04-01T12:03:49;9.17;;;6.47;;
13090;SDS011;6611;52.604;13.438;2023-04-01T12:09:08;7.97;;;5.67;;
13090;SDS011;6611;52.604;13.438;2023-04-01T12:14:16;9.60;;;6.23;;
13090;SDS011;6611;52.604;13.438;2023-04-01T12:19:26;8.00;;;5.80;;
13090;SDS011;6611;52.604;13.438;2023-04-01T12:30:20;10.47;;;7.50;;
13090;SDS011;6611;52.604;13.438;2023-04-01T12:35:47;11.17;;;7.73;;
13090;SDS011;6611;52.604;13.438;2023-04-01T12:41:08;11.17;;;7.83;;
13090;SDS011;6611;52.604;13.438;2023-04-01T12:46:14;9.73;;;7.30;;
13090;SDS011;6611;52.604;13.438;2023-04-01T12:51:28;10.50;;;7.50;;
13090;SDS011;6611;52.604;13.438;2023-04-01T12:56:39;9.93;;;7.47;;
13090;SDS011;6611;52.604;13.438;2023-04-01T13:01:57;11.43;;;7.97;;
13090;SDS011;6611;52.604;13.438;2023-04-01T13:12:57;9.63;;;7.10;;
13090;SDS011;6611;52.604;13.438;2023-04-01T13:18:13;9.47;;;6.57;;
13090;SDS011;6611;52.604;13.438;2023-04-01T13:23:33;9.83;;;6.70;;
13090;SDS011;6611;52.604;13.438;2023-04-01T13:28:47;8.53;;;5.90;;
13090;SDS011;6611;52.604;13.438;2023-04-01T13:33:57;8.70;;;5.67;;
13090;SDS011;6611;52.604;13.438;2023-04-01T13:39:17;5.03;;;3.73;;
13090;SDS011;6611;52.604;13.438;2023-04-01T13:44:29;6.17;;;3.70;;
13090;SDS011;6611;52.604;13.438;2023-04-01T13:49:37;6.03;;;3.47;;
13090;SDS011;6611;52.604;13.438;2023-04-01T14:06:09;4.47;;;3.53;;
13090;SDS011;6611;52.604;13.438;2023-04-01T14:11:18;5.97;;;3.77;;
13090;SDS011;6611;52.604;13.438;2023-04-01T14:16:28;5.13;;;3.60;;
13090;SDS011;6611;52.604;13.438;2023-04-01T14:21:50;4.30;;;3.43;;
13090;SDS011;6611;52.604;13.438;2023-04-01T14:32:45;4.27;;;3.00;;
13090;SDS011;6611;52.604;13.438;2023-04-01T14:37:58;3.73;;;3.07;;
13090;SDS011;6611;52.604;13.438;2023-04-01T14:43:27;4.13;;;2.40;;
13090;SDS011;6611;52.604;13.438;2023-04-01T14:48:49;4.07;;;2.80;;
13090;SDS011;6611;52.604;13.438;2023-04-01T14:53:56;4.80;;;3.00;;
13090;SDS011;6611;52.604;13.438;2023-04-01T14:59:10;2.70;;;2.33;;
13090;SDS011;6611;52.604;13.438;2023-04-01T15:09:45;6.17;;;3.53;;
13090;SDS011;6611;52.604;13.438;2023-04-01T15:15:01;7.17;;;4.53;;
13090;SDS011;6611;52.604;13.438;2023-04-01T15:31:36;6.33;;;4.20;;
13090;SDS011;6611;52.604;13.438;2023-04-01T15:36:46;6.20;;;3.70;;
13090;SDS011;6611;52.604;13.438;2023-04-01T15:42:04;5.53;;;3.73;;
13090;SDS011;6611;52.604;13.438;2023-04-01T15:47:33;6.37;;;3.60;;
13090;SDS011;6611;52.604;13.438;2023-04-01T15:52:39;5.97;;;3.80;;
13090;SDS011;6611;52.604;13.438;2023-04-01T15:57:49;4.13;;;3.50;;
13090;SDS011;6611;52.604;13.438;2023-04-01T16:08:29;4.93;;;3.47;;
13090;SDS011;6611;52.604;13.438;2023-04-01T16:14:06;4.43;;;3.47;;
13090;SDS011;6611;52.604;13.438;2023-04-01T16:19:20;3.97;;;3.37;;
13090;SDS011;6611;52.604;13.438;2023-04-01T16:24:34;5.10;;;3.63;;
13090;SDS011;6611;52.604;13.438;2023-04-01T16:29:44;4.57;;;3.47;;
13090;SDS011;6611;52.604;13.438;2023-04-01T16:34:56;6.07;;;3.87;;
13090;SDS011;6611;52.604;13.438;2023-04-01T16:40:10;5.73;;;3.20;;
13090;SDS011;6611;52.604;13.438;2023-04-01T16:45:26;4.73;;;3.00;;
13090;SDS011;6611;52.604;13.438;2023-04-01T16:50:41;5.93;;;2.80;;
13090;SDS011;6611;52.604;13.438;2023-04-01T16:55:50;5.70;;;3.80;;
13090;SDS011;6611;52.604;13.438;2023-04-01T17:01:01;4.07;;;2.93;;
13090;SDS011;6611;52.604;13.438;2023-04-01T17:06:11;5.63;;;3.70;;
13090;SDS011;6611;52.604;13.438;2023-04-01T17:11:21;6.17;;;3.57;;
13090;SDS011;6611;52.604;13.438;2023-04-01T17:16:36;3.17;;;2.87;;
13090;SDS011;6611;52.604;13.438;2023-04-01T17:21:53;3.83;;;3.00;;
13090;SDS011;6611;52.604;13.438;2023-04-01T17:27:04;3.77;;;3.00;;
13090;SDS011;6611;52.604;13.438;2023-04-01T17:32:17;5.47;;;2.97;;
13090;SDS011;6611;52.604;13.438;2023-04-01T17:37:37;3.77;;;2.93;;
13090;SDS011;6611;52.604;13.438;2023-04-01T17:42:47;5.40;;;3.03;;
13090;SDS011;6611;52.604;13.438;2023-04-01T17:47:58;5.20;;;2.67;;
13090;SDS011;6611;52.604;13.438;2023-04-01T17:53:14;3.43;;;2.97;;
13090;SDS011;6611;52.604;13.438;2023-04-01T17:58:28;4.87;;;3.40;;
13090;SDS011;6611;52.604;13.438;2023-04-01T18:08:59;5.37;;;3.53;;
13090;SDS011;6611;52.604;13.438;2023-04-01T18:19:59;5.17;;;3.63;;
13090;SDS011;6611;52.604;13.438;2023-04-01T18:25:14;5.70;;;4.47;;
13090;SDS011;6611;52.604;13.438;2023-04-01T18:30:26;5.87;;;3.97;;
13090;SDS011;6611;52.604;13.438;2023-04-01T18:35:34;16.00;;;4.73;;
13090;SDS011;6611;52.604;13.438;2023-04-01T18:40:51;9.23;;;3.70;;
13090;SDS011;6611;52.604;13.438;2023-04-01T18:45:59;5.30;;;3.90;;
13090;SDS011;6611;52.604;13.438;2023-04-01T18:51:10;5.97;;;4.27;;
13090;SDS011;6611;52.604;13.438;2023-04-01T18:56:22;6.37;;;4.30;;
13090;SDS011;6611;52.604;13.438;2023-04-01T19:01:28;6.23;;;4.43;;
13090;SDS011;6611;52.604;13.438;2023-04-01T19:06:41;6.23;;;4.47;;
13090;SDS011;6611;52.604;13.438;2023-04-01T19:11:56;10.90;;;5.07;;
13090;SDS011;6611;52.604;13.438;2023-04-01T19:17:15;9.27;;;4.50;;
13090;SDS011;6611;52.604;13.438;2023-04-01T19:22:32;8.40;;;5.67;;
13090;SDS011;6611;52.604;13.438;2023-04-01T19:27:48;7.77;;;5.00;;
13090;SDS011;6611;52.604;13.438;2023-04-01T19:32:53;9.00;;;5.23;;
13090;SDS011;6611;52.604;13.438;2023-04-01T19:38:02;10.23;;;5.27;;
13090;SDS011;6611;52.604;13.438;2023-04-01T19:43:10;8.97;;;4.93;;
13090;SDS011;6611;52.604;13.438;2023-04-01T19:48:27;9.63;;;6.67;;
13090;SDS011;6611;52.604;13.438;2023-04-01T19:53:40;10.03;;;5.40;;
13090;SDS011;6611;52.604;13.438;2023-04-01T19:58:50;6.40;;;4.77;;
13090;SDS011;6611;52.604;13.438;2023-04-01T20:03:57;10.90;;;5.43;;
13090;SDS011;6611;52.604;13.438;2023-04-01T20:09:07;8.50;;;5.10;;
13090;SDS011;6611;52.604;13.438;2023-04-01T20:14:29;6.13;;;4.90;;
13090;SDS011;6611;52.604;13.438;2023-04-01T20:19:37;7.27;;;5.03;;
13090;SDS011;6611;52.604;13.438;2023-04-01T20:24:43;9.93;;;5.37;;
13090;SDS011;6611;52.604;13.438;2023-04-01T20:29:54;7.53;;;5.30;;
13090;SDS011;6611;52.604;13.438;2023-04-01T20:35:10;7.30;;;5.20;;
13090;SDS011;6611;52.604;13.438;2023-04-01T20:40:35;8.37;;;5.63;;
13090;SDS011;6611;52.604;13.438;2023-04-01T20:45:42;9.77;;;5.77;;
13090;SDS011;6611;52.604;13.438;2023-04-01T20:50:56;8.53;;;6.10;;
13090;SDS011;6611;52.604;13.438;2023-04-01T21:01:41;10.27;;;6.03;;
13090;SDS011;6611;52.604;13.438;2023-04-01T21:12:24;6.23;;;4.37;;
13090;SDS011;6611;52.604;13.438;2023-04-01T21:17:36;6.90;;;4.90;;
13090;SDS011;6611;52.604;13.438;2023-04-01T21:22:46;6.87;;;4.77;;
13090;SDS011;6611;52.604;13.438;2023-04-01T21:28:05;6.37;;;4.23;;
13090;SDS011;6611;52.604;13.438;2023-04-01T21:33:18;6.43;;;4.70;;
13090;SDS011;6611;52.604;13.438;2023-04-01T21:38:43;6.40;;;4.80;;
13090;SDS011;6611;52.604;13.438;2023-04-01T21:44:02;6.03;;;4.50;;
13090;SDS011;6611;52.604;13.438;2023-04-01T21:49:49;6.53;;;4.37;;
13090;SDS011;6611;52.604;13.438;2023-04-01T21:55:21;9.00;;;5.23;;
13090;SDS011;6611;52.604;13.438;2023-04-01T22:00:49;6.37;;;4.30;;
13090;SDS011;6611;52.604;13.438;2023-04-01T22:06:02;7.40;;;4.83;;
13090;SDS011;6611;52.604;13.438;2023-04-01T22:11:11;6.07;;;4.57;;
13090;SDS011;6611;52.604;13.438;2023-04-01T22:16:23;5.83;;;4.17;;
13090;SDS011;6611;52.604;13.438;2023-04-01T22:21:34;6.03;;;3.87;;
13090;SDS011;6611;52.604;13.438;2023-04-01T22:26:42;5.63;;;3.60;;
13090;SDS011;6611;52.604;13.438;2023-04-01T22:31:49;4.70;;;3.60;;
13090;SDS011;6611;52.604;13.438;2023-04-01T22:36:58;6.87;;;4.10;;
13090;SDS011;6611;52.604;13.438;2023-04-01T22:42:09;5.40;;;3.77;;
13090;SDS011;6611;52.604;13.438;2023-04-01T22:47:28;7.47;;;3.90;;
13090;SDS011;6611;52.604;13.438;2023-04-01T22:52:41;8.97;;;4.60;;
13090;SDS011;6611;52.604;13.438;2023-04-01T22:57:46;5.00;;;4.10;;
13090;SDS011;6611;52.604;13.438;2023-04-01T23:03:00;5.70;;;4.50;;
13090;SDS011;6611;52.604;13.438;2023-04-01T23:08:24;6.30;;;4.40;;
13090;SDS011;6611;52.604;13.438;2023-04-01T23:13:47;5.47;;;4.03;;
13090;SDS011;6611;52.604;13.438;2023-04-01T23:18:55;5.07;;;3.73;;
13090;SDS011;6611;52.604;13.438;2023-04-01T23:24:03;4.37;;;3.33;;
13090;SDS011;6611;52.604;13.438;2023-04-01T23:29:12;4.37;;;3.10;;
13090;SDS011;6611;52.604;13.438;2023-04-01T23:34:20;4.83;;;3.10;;
13090;SDS011;6611;52.604;13.438;2023-04-01T23:39:28;5.00;;;2.97;;
13090;SDS011;6611;52.604;13.438;2023-04-01T23:44:32;4.40;;;3.37;;
13090;SDS011;6611;52.604;13.438;2023-04-01T23:49:35;4.73;;;3.10;;
13090;SDS011;6611;52.604;13.438;2023-04-01T23:54:42;3.53;;;2.97;;
13090;SDS011;6611;52.604;13.438;2023-04-01T23:59:59;5.57;;;3.07;;
